Time;durP1;ratioP1;P1;durP2;ratioP2;P2;SDS_P1;SDS_P2;PMS_P1;PMS_P2;Temp;Humidity;BMP_temperature;BMP_pressure;BME280_temperature;BME280_humidity;BME280_pressure;Samples;Min_cycle;Max_cycle;Signal;HPM_P1;HPM_P2
2022/02/08 00:00:33;;;;;;;;;;;;;;;13.44;59.49;102114.06;1021838;29;689;-61
2022/02/08 00:01:23;;;;;;;;;;;;;;;13.42;58.69;102110.63;1021402;29;1704;-61
2022/02/08 00:02:15;;;;;;;;;;;;;;;13.42;58.77;102107.09;1017884;29;700;-60
2022/02/08 00:03:05;;;;;;;;;;;;;;;13.40;59.20;102109.84;1021349;29;2067;-61
2022/02/08 00:03:56;;;;;;;;;;;;;;;13.39;58.55;102108.13;1020651;29;1518;-61
2022/02/08 00:04:48;;;;;;;;;;;;;;;13.39;59.05;102108.13;1020680;29;627;-61
2022/02/08 00:05:38;;;;;;;;;;;;;;;13.39;58.92;102104.59;1021790;29;643;-61
2022/02/08 00:06:44;;;;;;;;;;;;;;;13.40;59.02;102103.63;1020363;29;629;-61
2022/02/08 00:07:35;;;;;;;;;;;;;;;13.41;59.07;102100.88;1021672;29;790;-61
2022/02/08 00:08:25;;;;;;;;;;;;;;;13.43;58.96;102100.78;1021753;29;693;-61
2022/02/08 00:09:17;;;;;;;;;;;;;;;13.42;58.63;102109.75;1020773;29;681;-61
2022/02/08 00:10:08;;;;;;;;;;;;;;;13.42;59.42;102099.91;1021693;29;881;-62
2022/02/08 00:10:58;;;;;;;;;;;;;;;13.41;59.55;102103.56;1020349;29;2024;-60
2022/02/08 00:11:49;;;;;;;;;;;;;;;13.42;59.16;102102.59;1021835;29;607;-64
2022/02/08 00:12:39;;;;;;;;;;;;;;;13.42;59.57;102105.28;1021607;29;666;-64
2022/02/08 00:13:29;;;;;;;;;;;;;;;13.42;58.85;102102.59;1018397;29;542;-64
2022/02/08 00:14:20;;;;;;;;;;;;;;;13.41;58.85;102108.91;1018850;28;770;-64
2022/02/08 00:15:10;;;;;;;;;;;;;;;13.40;59.54;102107.19;1019048;29;743;-63
2022/02/08 00:16:01;;;;;;;;;;;;;;;13.40;58.62;102107.19;1018996;28;729;-64
2022/02/08 00:16:52;;;;;;;;;;;;;;;13.40;59.62;102104.50;1017181;29;706;-64
2022/02/08 00:17:42;;;;;;;;;;;;;;;13.40;59.58;102109.00;1017768;29;787;-63
2022/02/08 00:18:32;;;;;;;;;;;;;;;13.39;59.70;102108.13;1018808;28;1039;-64
2022/02/08 00:19:23;;;;;;;;;;;;;;;13.39;59.46;102102.75;1021684;28;1782;-64
2022/02/08 00:20:13;;;;;;;;;;;;;;;13.39;58.97;102107.25;1022025;29;2012;-64
2022/02/08 00:21:04;;;;;;;;;;;;;;;13.38;59.59;102095.69;1021979;29;753;-63
2022/02/08 00:21:54;;;;;;;;;;;;;;;13.38;59.26;102109.06;1021766;29;615;-63
2022/02/08 00:22:45;;;;;;;;;;;;;;;13.39;58.82;102101.91;1020722;29;905;-63
2022/02/08 00:23:35;;;;;;;;;;;;;;;13.39;58.71;102100.09;1020548;29;631;-63
2022/02/08 00:24:25;;;;;;;;;;;;;;;13.39;59.34;102097.41;1020525;29;767;-63
2022/02/08 00:25:16;;;;;;;;;;;;;;;13.38;59.34;102100.19;1020774;29;698;-63
2022/02/08 00:26:06;;;;;;;;;;;;;;;13.36;58.80;102097.56;1020608;29;734;-63
2022/02/08 00:26:57;;;;;;;;;;;;;;;13.37;59.49;102107.34;1020586;29;869;-64
2022/02/08 00:27:47;;;;;;;;;;;;;;;13.37;59.52;102101.13;1020386;29;631;-63
2022/02/08 00:28:37;;;;;;;;;;;;;;;13.36;59.66;102102.06;1020593;29;779;-63
2022/02/08 00:29:28;;;;;;;;;;;;;;;13.36;59.26;102100.25;1020622;29;1964;-63
2022/02/08 00:30:18;;;;;;;;;;;;;;;13.37;59.27;102098.44;1020647;29;779;-63
2022/02/08 00:31:09;;;;;;;;;;;;;;;13.37;59.45;102101.97;1020677;29;986;-64
2022/02/08 00:31:59;;;;;;;;;;;;;;;13.38;58.79;102100.19;1022247;29;744;-63
2022/02/08 00:32:50;;;;;;;;;;;;;;;13.39;59.08;102099.22;1020680;29;607;-61
2022/02/08 00:33:40;;;;;;;;;;;;;;;13.39;59.30;102102.75;1020600;29;930;-60
2022/02/08 00:34:30;;;;;;;;;;;;;;;13.39;59.62;102113.47;1020575;29;624;-61
2022/02/08 00:35:21;;;;;;;;;;;;;;;13.39;59.51;102112.63;1020608;29;902;-61
2022/02/08 00:36:11;;;;;;;;;;;;;;;13.38;59.61;102105.53;1020538;29;735;-60
2022/02/08 00:37:02;;;;;;;;;;;;;;;13.38;59.02;102109.06;1020676;29;819;-60
2022/02/08 00:37:52;;;;;;;;;;;;;;;13.37;59.77;102107.34;1020203;29;1788;-61
2022/02/08 00:38:42;;;;;;;;;;;;;;;13.38;59.89;102106.41;1016616;29;689;-61
2022/02/08 00:39:34;;;;;;;;;;;;;;;13.38;59.52;102106.41;1017093;29;837;-61
2022/02/08 00:40:27;;;;;;;;;;;;;;;13.38;59.54;102103.72;1017689;29;2014;-60
2022/02/08 00:41:17;;;;;;;;;;;;;;;13.38;59.53;102106.41;1017273;29;826;-60
2022/02/08 00:42:10;;;;;;;;;;;;;;;13.38;59.05;102101.03;1017216;29;814;-60
2022/02/08 00:43:02;;;;;;;;;;;;;;;13.38;59.01;102110.88;1017167;29;823;-61
2022/02/08 00:44:48;;;;;;;;;;;;;;;13.36;60.14;102110.09;1017634;29;718;-61
2022/02/08 00:45:52;;;;;;;;;;;;;;;13.37;59.21;102115.38;1017150;29;854;-61
2022/02/08 00:47:40;;;;;;;;;;;;;;;13.37;59.16;102110.03;1017658;29;922;-61
2022/02/08 00:48:38;;;;;;;;;;;;;;;13.37;59.00;102101.13;1017560;29;920;-60
2022/02/08 00:49:33;;;;;;;;;;;;;;;13.38;59.49;102106.41;1017767;29;670;-61
2022/02/08 00:50:26;;;;;;;;;;;;;;;13.40;59.46;102109.84;1014167;29;719;-61
2022/02/08 00:51:17;;;;;;;;;;;;;;;13.39;59.59;102108.13;1012608;29;697;-62
2022/02/08 00:52:14;;;;;;;;;;;;;;;13.40;59.44;102106.31;1017082;29;790;-61
2022/02/08 00:53:04;;;;;;;;;;;;;;;13.39;59.11;102108.13;1018214;29;839;-62
2022/02/08 00:53:55;;;;;;;;;;;;;;;13.38;59.01;102106.41;1018165;29;919;-63
2022/02/08 00:54:45;;;;;;;;;;;;;;;13.37;60.10;102110.03;1018885;29;705;-63
2022/02/08 00:55:36;;;;;;;;;;;;;;;13.36;59.96;102108.28;1018268;29;690;-63
2022/02/08 00:56:26;;;;;;;;;;;;;;;13.39;59.84;102112.63;1018345;29;871;-62
2022/02/08 00:57:17;;;;;;;;;;;;;;;13.37;59.90;102096.63;1018151;29;655;-62
2022/02/08 00:58:07;;;;;;;;;;;;;;;13.37;59.85;102099.31;1019921;29;1915;-62
2022/02/08 00:58:57;;;;;;;;;;;;;;;13.38;60.11;102100.19;1021634;29;750;-62
2022/02/08 00:59:48;;;;;;;;;;;;;;;13.38;59.15;102095.69;1016945;29;675;-62
2022/02/08 01:00:39;;;;;;;;;;;;;;;13.38;60.19;102097.50;1017348;29;719;-64
2022/02/08 01:01:33;;;;;;;;;;;;;;;13.39;59.26;102093.88;1021050;29;651;-64
2022/02/08 01:02:24;;;;;;;;;;;;;;;13.36;59.61;102102.94;1021103;29;923;-63
2022/02/08 01:03:16;;;;;;;;;;;;;;;13.35;60.23;102095.84;1021641;29;755;-63
2022/02/08 01:04:06;;;;;;;;;;;;;;;13.35;60.11;102090.50;1021000;29;805;-63
2022/02/08 01:05:00;;;;;;;;;;;;;;;13.35;59.40;102095.84;1021629;29;806;-61
2022/02/08 01:06:01;;;;;;;;;;;;;;;13.33;59.31;102087.03;1020988;29;699;-61
2022/02/08 01:06:54;;;;;;;;;;;;;;;13.33;59.52;102097.75;1021047;29;770;-61
2022/02/08 01:07:44;;;;;;;;;;;;;;;13.32;59.96;102087.13;1021048;29;737;-61
2022/02/08 01:08:36;;;;;;;;;;;;;;;13.31;59.89;102091.63;1017617;29;762;-61
2022/02/08 01:09:35;;;;;;;;;;;;;;;13.32;59.84;102085.31;1017652;29;675;-61
2022/02/08 01:10:30;;;;;;;;;;;;;;;13.30;59.73;102091.69;1017511;29;768;-62
2022/02/08 01:11:22;;;;;;;;;;;;;;;13.29;59.56;102098.88;1017073;29;729;-61
2022/02/08 01:12:12;;;;;;;;;;;;;;;13.28;60.37;102094.47;1017216;29;763;-61
2022/02/08 01:13:03;;;;;;;;;;;;;;;13.30;59.61;102091.69;1017500;29;897;-60
2022/02/08 01:13:53;;;;;;;;;;;;;;;13.28;59.72;102086.44;1018088;29;721;-60
2022/02/08 01:14:45;;;;;;;;;;;;;;;13.29;59.98;102096.19;1017559;29;848;-60
2022/02/08 01:15:36;;;;;;;;;;;;;;;13.29;59.70;102092.66;1017200;29;841;-60
2022/02/08 01:16:26;;;;;;;;;;;;;;;13.29;59.47;102089.97;1017991;29;662;-61
2022/02/08 01:17:17;;;;;;;;;;;;;;;13.31;59.62;102094.28;1017411;29;739;-64
2022/02/08 01:18:07;;;;;;;;;;;;;;;13.30;60.05;102081.84;1018863;29;1850;-65
2022/02/08 01:18:59;;;;;;;;;;;;;;;13.30;60.40;102091.69;1021632;29;1183;-62
2022/02/08 01:19:54;;;;;;;;;;;;;;;13.30;60.03;102094.38;1017915;29;619;-62
2022/02/08 01:20:45;;;;;;;;;;;;;;;13.28;59.67;102091.78;1017592;29;642;-62
2022/02/08 01:21:35;;;;;;;;;;;;;;;13.29;60.23;102093.50;1017685;29;702;-62
2022/02/08 01:22:25;;;;;;;;;;;;;;;13.29;60.39;102089.97;1017625;29;691;-62
2022/02/08 01:23:16;;;;;;;;;;;;;;;13.28;60.44;102093.59;1017571;29;773;-62
2022/02/08 01:24:06;;;;;;;;;;;;;;;13.29;59.53;102090.84;1017567;29;703;-63
2022/02/08 01:24:57;;;;;;;;;;;;;;;13.28;59.96;102082.88;1017854;29;667;-62
2022/02/08 01:25:52;;;;;;;;;;;;;;;13.29;60.33;102090.84;1017346;29;741;-62
2022/02/08 01:26:51;;;;;;;;;;;;;;;13.30;60.12;102084.53;1017699;29;548;-62
2022/02/08 01:27:53;;;;;;;;;;;;;;;13.30;60.38;102086.34;1017014;29;675;-62
2022/02/08 01:28:52;;;;;;;;;;;;;;;13.29;60.07;102090.84;1017586;29;611;-61
2022/02/08 01:29:55;;;;;;;;;;;;;;;13.29;60.50;102082.81;1017074;29;917;-60
2022/02/08 01:30:59;;;;;;;;;;;;;;;13.29;60.54;102092.66;1017088;29;623;-60
2022/02/08 01:31:51;;;;;;;;;;;;;;;13.29;60.28;102096.19;1017061;29;848;-60
2022/02/08 01:32:59;;;;;;;;;;;;;;;13.28;60.02;102097.13;1018189;29;634;-60
2022/02/08 01:35:04;;;;;;;;;;;;;;;13.29;59.75;102109.56;1018117;29;666;-60
2022/02/08 01:36:20;;;;;;;;;;;;;;;13.30;60.11;102113.13;1018153;29;959;-60
2022/02/08 01:37:20;;;;;;;;;;;;;;;13.30;60.17;102111.31;1018124;29;638;-60
2022/02/08 01:38:17;;;;;;;;;;;;;;;13.31;60.26;102112.16;1018839;29;1876;-60
2022/02/08 01:39:17;;;;;;;;;;;;;;;13.30;59.90;102116.66;1020974;29;800;-61
2022/02/08 01:40:18;;;;;;;;;;;;;;;13.31;59.65;102107.69;1020807;29;1898;-60
2022/02/08 01:41:37;;;;;;;;;;;;;;;13.32;60.12;102112.09;1021049;29;781;-60
2022/02/08 01:42:41;;;;;;;;;;;;;;;13.30;60.00;102113.97;1020921;29;729;-60
2022/02/08 01:45:00;;;;;;;;;;;;;;;13.30;60.73;102102.41;1021472;29;688;-60
2022/02/08 01:47:47;;;;;;;;;;;;;;;13.29;59.85;102104.22;1021999;29;650;-60
2022/02/08 01:48:57;;;;;;;;;;;;;;;13.29;60.11;102112.25;1020837;29;1095;-60
2022/02/08 01:50:10;;;;;;;;;;;;;;;13.28;60.01;102110.53;1020990;29;721;-60
2022/02/08 01:51:01;;;;;;;;;;;;;;;13.26;60.04;102107.06;1021011;29;735;-60
2022/02/08 01:51:51;;;;;;;;;;;;;;;13.29;60.67;102112.25;1021490;29;996;-60
2022/02/08 01:52:42;;;;;;;;;;;;;;;13.27;59.96;102108.78;1021501;29;947;-60
2022/02/08 01:53:32;;;;;;;;;;;;;;;13.27;60.00;102107.94;1020952;29;682;-60
2022/02/08 01:54:22;;;;;;;;;;;;;;;13.28;60.69;102117.69;1021324;29;745;-60
2022/02/08 01:55:13;;;;;;;;;;;;;;;13.27;60.37;102113.28;1021517;29;795;-60
2022/02/08 01:56:03;;;;;;;;;;;;;;;13.28;60.35;102115.00;1021456;29;743;-60
2022/02/08 01:56:54;;;;;;;;;;;;;;;13.27;60.60;102106.13;1020948;29;754;-60
2022/02/08 01:57:45;;;;;;;;;;;;;;;13.28;60.02;102105.16;1021398;29;686;-60
2022/02/08 01:58:35;;;;;;;;;;;;;;;13.28;60.01;102121.22;1020946;29;849;-61
2022/02/08 01:59:26;;;;;;;;;;;;;;;13.28;60.58;102115.88;1020899;29;708;-60
2022/02/08 02:00:16;;;;;;;;;;;;;;;13.28;59.98;102115.88;1020738;29;1898;-60
2022/02/08 02:01:08;;;;;;;;;;;;;;;13.28;60.33;102120.38;1021484;29;712;-60
2022/02/08 02:01:59;;;;;;;;;;;;;;;13.27;60.99;102114.16;1016915;29;735;-60
2022/02/08 02:02:49;;;;;;;;;;;;;;;13.27;61.05;102111.47;1014001;29;879;-60
2022/02/08 02:03:42;;;;;;;;;;;;;;;13.28;60.11;102120.38;1016516;29;913;-60
2022/02/08 02:04:33;;;;;;;;;;;;;;;13.27;60.58;102119.50;1021112;29;788;-60
2022/02/08 02:05:23;;;;;;;;;;;;;;;13.28;60.38;102115.00;1021519;29;765;-61
2022/02/08 02:06:14;;;;;;;;;;;;;;;13.26;60.18;102115.09;1021423;29;778;-62
2022/02/08 02:07:04;;;;;;;;;;;;;;;13.27;59.93;102114.16;1020919;29;842;-62
2022/02/08 02:07:55;;;;;;;;;;;;;;;13.27;60.23;102113.28;1021494;29;631;-61
2022/02/08 02:08:45;;;;;;;;;;;;;;;13.26;60.92;102117.78;1021352;29;1990;-61
2022/02/08 02:09:36;;;;;;;;;;;;;;;13.28;60.72;102115.88;1020334;29;698;-61
2022/02/08 02:10:26;;;;;;;;;;;;;;;13.29;60.53;102117.59;1021472;29;2176;-62
2022/02/08 02:11:17;;;;;;;;;;;;;;;13.28;60.25;102109.66;1021467;29;861;-62
2022/02/08 02:12:08;;;;;;;;;;;;;;;13.28;60.37;102118.56;1021449;29;880;-62
2022/02/08 02:12:59;;;;;;;;;;;;;;;13.28;60.45;102115.88;1020829;29;696;-62
2022/02/08 02:13:50;;;;;;;;;;;;;;;13.27;60.32;102116.81;1020804;29;649;-63
2022/02/08 02:14:41;;;;;;;;;;;;;;;13.28;60.44;102121.22;1020992;29;771;-63
2022/02/08 02:15:32;;;;;;;;;;;;;;;13.28;60.20;102121.22;1021310;29;779;-63
2022/02/08 02:16:35;;;;;;;;;;;;;;;13.29;61.10;102108.72;1020845;29;1827;-65
2022/02/08 02:17:25;;;;;;;;;;;;;;;13.27;60.68;102108.78;1016845;29;858;-64
2022/02/08 02:18:16;;;;;;;;;;;;;;;13.28;60.60;102115.00;1017497;29;731;-64
2022/02/08 02:19:06;;;;;;;;;;;;;;;13.28;60.14;102102.50;1017517;29;909;-65
2022/02/08 02:19:56;;;;;;;;;;;;;;;13.27;60.25;102114.16;1017481;29;772;-65
2022/02/08 02:20:47;;;;;;;;;;;;;;;13.27;60.30;102107.94;1017580;29;721;-64
2022/02/08 02:21:37;;;;;;;;;;;;;;;13.27;60.81;102100.75;1017377;29;909;-64
2022/02/08 02:22:28;;;;;;;;;;;;;;;13.26;60.46;102101.72;1017409;29;718;-62
2022/02/08 02:23:18;;;;;;;;;;;;;;;13.27;60.51;102111.47;1017600;29;751;-62
2022/02/08 02:24:08;;;;;;;;;;;;;;;13.27;60.48;102102.56;1017439;29;666;-62
2022/02/08 02:24:59;;;;;;;;;;;;;;;13.27;60.75;102095.41;1017574;29;690;-62
2022/02/08 02:25:49;;;;;;;;;;;;;;;13.27;60.30;102106.13;1016780;29;713;-62
2022/02/08 02:26:40;;;;;;;;;;;;;;;13.25;60.28;102104.50;1019457;29;1822;-63
2022/02/08 02:27:30;;;;;;;;;;;;;;;13.25;61.15;102100.00;1020412;29;783;-62
2022/02/08 02:28:20;;;;;;;;;;;;;;;13.26;60.28;102099.03;1019740;29;1699;-63
2022/02/08 02:29:11;;;;;;;;;;;;;;;13.26;60.74;102103.53;1021392;29;733;-62
2022/02/08 02:30:01;;;;;;;;;;;;;;;13.24;60.55;102109.00;1022107;29;936;-62
2022/02/08 02:30:52;;;;;;;;;;;;;;;13.26;60.58;102108.88;1022165;29;670;-63
2022/02/08 02:31:42;;;;;;;;;;;;;;;13.25;60.25;102109.84;1022236;29;690;-62
2022/02/08 02:32:33;;;;;;;;;;;;;;;13.25;60.41;102099.16;1022149;29;639;-62
2022/02/08 02:33:23;;;;;;;;;;;;;;;13.24;61.40;102097.41;1022259;29;913;-62
2022/02/08 02:34:13;;;;;;;;;;;;;;;13.23;60.89;102096.56;1022095;29;949;-62
2022/02/08 02:35:04;;;;;;;;;;;;;;;13.22;60.64;102102.84;1022147;29;762;-63
2022/02/08 02:35:56;;;;;;;;;;;;;;;13.20;60.71;102097.59;1022249;29;706;-63
2022/02/08 02:36:46;;;;;;;;;;;;;;;13.21;61.31;102098.44;1021270;29;1810;-63
2022/02/08 02:37:37;;;;;;;;;;;;;;;13.20;61.28;102091.38;1021071;29;679;-62
2022/02/08 02:38:27;;;;;;;;;;;;;;;13.18;60.41;102101.28;1021092;29;961;-62
2022/02/08 02:39:18;;;;;;;;;;;;;;;13.19;60.44;102100.34;1022090;29;629;-63
2022/02/08 02:40:08;;;;;;;;;;;;;;;13.19;60.81;102098.53;1021011;29;774;-62
2022/02/08 02:40:58;;;;;;;;;;;;;;;13.20;60.98;102088.69;1020941;29;716;-62
2022/02/08 02:41:49;;;;;;;;;;;;;;;13.20;60.75;102094.03;1021061;29;680;-62
2022/02/08 02:42:39;;;;;;;;;;;;;;;13.22;60.37;102089.47;1021372;29;853;-62
2022/02/08 02:43:30;;;;;;;;;;;;;;;13.21;60.97;102095.78;1021025;29;627;-63
2022/02/08 02:44:23;;;;;;;;;;;;;;;13.22;61.07;102100.19;1021093;29;796;-63
2022/02/08 02:45:13;;;;;;;;;;;;;;;13.20;61.12;102096.72;1022122;29;766;-62
2022/02/08 02:46:04;;;;;;;;;;;;;;;13.19;61.19;102087.81;1022093;29;909;-63
2022/02/08 02:46:55;;;;;;;;;;;;;;;13.18;60.98;102099.47;1021959;29;1992;-62
2022/02/08 02:47:45;;;;;;;;;;;;;;;13.18;61.07;102099.47;1022069;29;620;-62
2022/02/08 02:48:35;;;;;;;;;;;;;;;13.15;61.32;102094.28;1021991;29;1012;-62
2022/02/08 02:49:27;;;;;;;;;;;;;;;13.16;61.49;102101.38;1021616;29;648;-63
2022/02/08 02:50:17;;;;;;;;;;;;;;;13.16;61.25;102093.34;1021522;29;727;-63
2022/02/08 02:51:08;;;;;;;;;;;;;;;13.16;60.75;102095.16;1022019;29;693;-63
2022/02/08 02:51:58;;;;;;;;;;;;;;;13.17;61.11;102096.88;1022040;29;764;-63
2022/02/08 02:52:48;;;;;;;;;;;;;;;13.17;61.34;102094.22;1022017;29;883;-63
2022/02/08 02:53:39;;;;;;;;;;;;;;;13.17;61.19;102094.22;1021937;29;697;-64
2022/02/08 02:54:29;;;;;;;;;;;;;;;13.18;60.97;102098.63;1021308;29;745;-64
2022/02/08 02:55:20;;;;;;;;;;;;;;;13.17;60.77;102097.75;1017308;29;722;-64
2022/02/08 02:56:10;;;;;;;;;;;;;;;13.18;60.70;102096.81;1017795;29;758;-64
2022/02/08 02:57:01;;;;;;;;;;;;;;;13.20;61.27;102102.06;1021279;29;1781;-64
2022/02/08 02:57:54;;;;;;;;;;;;;;;13.20;60.90;102096.72;1022044;29;820;-64
2022/02/08 02:58:44;;;;;;;;;;;;;;;13.20;61.59;102099.41;1022018;29;655;-64
2022/02/08 02:59:37;;;;;;;;;;;;;;;13.17;60.96;102092.41;1021049;29;687;-63
2022/02/08 03:00:37;;;;;;;;;;;;;;;13.17;61.26;102095.06;1021891;29;1903;-64
2022/02/08 03:01:47;;;;;;;;;;;;;;;13.16;60.51;102096.03;1021939;29;884;-64
2022/02/08 03:17:25;;;;;;;;;;;;;;;13.15;61.45;102098.78;1022004;29;784;-64
2022/02/08 03:18:51;;;;;;;;;;;;;;;13.18;61.71;102106.66;1017188;29;1983;-61
2022/02/08 03:19:41;;;;;;;;;;;;;;;13.18;61.42;102101.28;1020520;29;919;-61
2022/02/08 03:20:32;;;;;;;;;;;;;;;13.18;60.70;102103.97;1020718;29;1890;-61
2022/02/08 03:21:22;;;;;;;;;;;;;;;13.17;61.41;102102.25;1021079;29;884;-61
2022/02/08 03:22:12;;;;;;;;;;;;;;;13.17;61.60;102095.06;1020685;29;728;-62
2022/02/08 03:23:03;;;;;;;;;;;;;;;13.18;61.73;102104.84;1021018;29;758;-61
2022/02/08 03:23:53;;;;;;;;;;;;;;;13.19;60.87;102111.06;1020746;29;706;-61
2022/02/08 03:24:44;;;;;;;;;;;;;;;13.20;61.55;102104.75;1020825;29;686;-61
2022/02/08 03:25:34;;;;;;;;;;;;;;;13.18;61.08;102103.97;1020990;29;659;-62
2022/02/08 03:26:24;;;;;;;;;;;;;;;13.17;61.43;102107.59;1020715;29;746;-62
2022/02/08 03:27:15;;;;;;;;;;;;;;;13.16;60.70;102103.19;1016884;29;678;-61
2022/02/08 03:28:06;;;;;;;;;;;;;;;13.17;60.89;102112.94;1017458;29;811;-62
2022/02/08 03:28:56;;;;;;;;;;;;;;;13.16;61.00;102105.88;1017494;29;795;-62
2022/02/08 03:29:47;;;;;;;;;;;;;;;13.16;60.99;102111.22;1017368;29;626;-62
2022/02/08 03:30:37;;;;;;;;;;;;;;;13.17;61.06;102107.59;1017491;29;787;-62
2022/02/08 03:31:27;;;;;;;;;;;;;;;13.16;61.47;102111.22;1017379;29;696;-61
2022/02/08 03:32:20;;;;;;;;;;;;;;;13.16;60.94;102116.56;1017508;29;868;-62
2022/02/08 03:33:10;;;;;;;;;;;;;;;13.15;61.73;102117.50;1017574;29;838;-62
2022/02/08 03:34:01;;;;;;;;;;;;;;;13.16;61.89;102116.56;1017372;29;830;-62
2022/02/08 03:34:51;;;;;;;;;;;;;;;13.15;61.75;102112.16;1017496;29;846;-62
2022/02/08 03:35:42;;;;;;;;;;;;;;;13.15;61.23;102118.38;1017907;29;626;-62
2022/02/08 03:36:32;;;;;;;;;;;;;;;13.15;62.02;102109.47;1018486;29;958;-62
2022/02/08 03:37:23;;;;;;;;;;;;;;;13.14;61.82;102113.94;1018497;29;887;-61
2022/02/08 03:38:16;;;;;;;;;;;;;;;13.15;61.96;102112.16;1019163;29;752;-61
2022/02/08 03:39:17;;;;;;;;;;;;;;;13.15;61.57;102114.84;1018434;29;906;-60
2022/02/08 03:40:14;;;;;;;;;;;;;;;13.17;61.69;102112.94;1018522;29;854;-60
2022/02/08 03:41:08;;;;;;;;;;;;;;;13.18;61.33;102117.34;1018690;29;886;-61
2022/02/08 03:42:06;;;;;;;;;;;;;;;13.17;60.98;102119.16;1018475;29;750;-61
2022/02/08 03:43:00;;;;;;;;;;;;;;;13.17;61.67;102113.81;1018409;29;719;-61
2022/02/08 03:43:50;;;;;;;;;;;;;;;13.17;61.26;102115.63;1018450;29;759;-60
2022/02/08 03:44:45;;;;;;;;;;;;;;;13.16;61.64;102106.72;1018447;29;627;-60
2022/02/08 03:45:35;;;;;;;;;;;;;;;13.15;61.99;102101.47;1017965;29;722;-61
2022/02/08 03:46:29;;;;;;;;;;;;;;;13.14;61.28;102108.59;1016810;29;620;-62
2022/02/08 03:47:20;;;;;;;;;;;;;;;13.15;61.92;102104.13;1017855;29;899;-62
2022/02/08 03:48:14;;;;;;;;;;;;;;;13.14;62.03;102100.56;1017935;29;764;-62
2022/02/08 03:49:04;;;;;;;;;;;;;;;13.14;61.91;102105.91;1017412;29;739;-62
2022/02/08 03:49:55;;;;;;;;;;;;;;;13.14;61.27;102107.72;1017943;29;614;-62
2022/02/08 03:50:50;;;;;;;;;;;;;;;13.14;62.23;102105.03;1016882;29;656;-62
2022/02/08 03:51:53;;;;;;;;;;;;;;;13.13;62.08;102106.00;1017710;29;1363;-62
2022/02/08 03:52:43;;;;;;;;;;;;;;;13.14;61.70;102113.94;1017946;29;639;-62
2022/02/08 03:53:34;;;;;;;;;;;;;;;13.12;61.97;102113.16;1016767;29;946;-62
2022/02/08 03:54:24;;;;;;;;;;;;;;;13.12;61.99;102110.47;1017027;29;742;-62
2022/02/08 03:55:15;;;;;;;;;;;;;;;13.12;61.50;102109.63;1018227;29;1908;-63
2022/02/08 03:56:08;;;;;;;;;;;;;;;13.13;61.54;102114.88;1021182;29;745;-62
2022/02/08 03:56:59;;;;;;;;;;;;;;;13.14;61.74;102119.28;1021837;29;773;-61
2022/02/08 03:57:50;;;;;;;;;;;;;;;13.13;61.47;102117.56;1021097;29;808;-62
2022/02/08 03:58:40;;;;;;;;;;;;;;;13.15;61.16;102114.84;1021873;29;686;-62
2022/02/08 03:59:31;;;;;;;;;;;;;;;13.14;61.88;102113.06;1021253;29;934;-63
2022/02/08 04:00:23;;;;;;;;;;;;;;;13.13;62.17;102117.56;1021655;29;1931;-62
2022/02/08 04:02:26;;;;;;;;;;;;;;;13.14;62.23;102124.66;1022368;29;869;-62
2022/02/08 04:03:16;;;;;;;;;;;;;;;13.13;61.37;102122.06;1021302;29;664;-62
2022/02/08 04:05:24;;;;;;;;;;;;;;;13.12;61.99;102134.56;1022192;29;1968;-64
2022/02/08 04:06:14;;;;;;;;;;;;;;;13.13;61.89;102127.41;1016708;29;798;-63
2022/02/08 04:07:12;;;;;;;;;;;;;;;13.13;61.60;102127.41;1017796;29;752;-63
2022/02/08 04:08:07;;;;;;;;;;;;;;;13.14;61.48;102129.13;1018173;29;764;-63
2022/02/08 04:08:59;;;;;;;;;;;;;;;13.14;61.55;102124.66;1018443;29;774;-63
2022/02/08 04:09:52;;;;;;;;;;;;;;;13.14;61.44;102132.69;1017872;29;847;-63
2022/02/08 04:10:44;;;;;;;;;;;;;;;13.14;61.25;102130.00;1018423;29;626;-61
2022/02/08 04:11:39;;;;;;;;;;;;;;;13.14;61.25;102129.13;1017899;29;701;-63
2022/02/08 04:12:46;;;;;;;;;;;;;;;13.15;62.11;102125.53;1017875;29;932;-64
2022/02/08 04:13:47;;;;;;;;;;;;;;;13.14;61.25;102127.31;1017506;29;674;-63
2022/02/08 04:15:20;;;;;;;;;;;;;;;13.14;61.18;102121.97;1017225;29;681;-64
2022/02/08 04:16:12;;;;;;;;;;;;;;;13.13;62.14;102128.28;1018332;29;718;-61
2022/02/08 04:18:00;;;;;;;;;;;;;;;13.14;61.91;102131.81;1017778;29;861;-61
2022/02/08 04:19:30;;;;;;;;;;;;;;;13.14;61.75;102131.81;1017915;29;743;-62
2022/02/08 04:32:13;;;;;;;;;;;;;;;13.17;62.34;102119.16;1005821;29;710;-62
2022/02/08 04:33:10;;;;;;;;;;;;;;;13.18;62.21;102115.53;1021129;29;914;-62
2022/02/08 04:35:05;;;;;;;;;;;;;;;13.18;61.55;102120.03;1021207;29;950;-61
2022/02/08 04:36:24;;;;;;;;;;;;;;;13.16;61.33;102113.88;1021487;29;2062;-62
2022/02/08 04:39:38;;;;;;;;;;;;;;;13.18;61.17;102122.69;1017232;29;794;-61
2022/02/08 04:41:28;;;;;;;;;;;;;;;13.16;62.14;102116.56;1017211;29;812;-61
2022/02/08 04:43:26;;;;;;;;;;;;;;;13.16;62.17;102122.78;1017163;29;732;-61
2022/02/08 04:47:59;;;;;;;;;;;;;;;13.15;61.72;102114.84;1022191;29;857;-61
2022/02/08 04:48:55;;;;;;;;;;;;;;;13.15;61.86;102118.38;1020917;29;1022;-61
2022/02/08 04:49:46;;;;;;;;;;;;;;;13.15;61.37;102114.84;1021017;29;982;-62
2022/02/08 04:50:38;;;;;;;;;;;;;;;13.14;61.53;102118.44;1021627;29;618;-62
2022/02/08 04:51:40;;;;;;;;;;;;;;;13.14;62.50;102118.44;1021031;29;1254;-62
2022/02/08 04:52:32;;;;;;;;;;;;;;;13.12;62.10;102110.47;1020917;29;643;-62
2022/02/08 04:53:33;;;;;;;;;;;;;;;13.14;61.96;102118.44;1021101;29;820;-62
2022/02/08 04:55:46;;;;;;;;;;;;;;;13.13;61.93;102111.34;1021537;29;623;-62
2022/02/08 04:57:54;;;;;;;;;;;;;;;13.11;61.47;102118.59;1021622;29;733;-62
2022/02/08 04:58:56;;;;;;;;;;;;;;;13.12;62.42;102120.31;1021181;29;1252;-62
2022/02/08 05:00:45;;;;;;;;;;;;;;;13.11;61.54;102115.91;1022092;29;1950;-61
2022/02/08 05:02:03;;;;;;;;;;;;;;;13.10;61.42;102116.88;1021159;29;741;-60
2022/02/08 05:40:58;;;;;;;;;;;;;;;13.83;60.35;102115.41;1021890;29;1894;-63
2022/02/08 05:41:53;;;;;;;;;;;;;;;13.84;60.53;102109.97;1021404;29;856;-64
2022/02/08 05:44:55;;;;;;;;;;;;;;;13.88;60.28;102110.66;1013170;29;654;-64
2022/02/08 05:46:52;;;;;;;;;;;;;;;13.89;60.37;102115.06;1021482;29;700;-62
2022/02/08 05:47:43;;;;;;;;;;;;;;;13.92;60.47;102114.88;1021430;29;1117;-62
2022/02/08 05:48:36;;;;;;;;;;;;;;;13.92;60.72;102108.66;1021329;29;915;-61
2022/02/08 05:49:41;;;;;;;;;;;;;;;13.94;60.61;102109.44;1021368;29;881;-62
2022/02/08 05:50:54;;;;;;;;;;;;;;;13.94;60.10;102109.44;1021348;29;760;-61
2022/02/08 05:52:48;;;;;;;;;;;;;;;13.91;60.75;102102.44;1020963;29;772;-63
2022/02/08 05:53:43;;;;;;;;;;;;;;;13.95;60.73;102111.16;1021453;29;654;-63
2022/02/08 05:54:33;;;;;;;;;;;;;;;13.96;60.67;102102.16;1021448;29;933;-63
2022/02/08 05:55:24;;;;;;;;;;;;;;;13.96;60.82;102100.34;1021632;29;801;-63
2022/02/08 05:56:14;;;;;;;;;;;;;;;13.98;60.67;102100.22;1017152;29;1884;-63
2022/02/08 05:57:05;;;;;;;;;;;;;;;13.98;60.32;102101.09;1017325;29;832;-60
2022/02/08 05:57:56;;;;;;;;;;;;;;;14.00;60.83;102101.00;1021373;29;816;-62
2022/02/08 05:58:47;;;;;;;;;;;;;;;14.00;60.69;102092.97;1021397;29;1604;-60
2022/02/08 05:59:38;;;;;;;;;;;;;;;14.01;60.57;102098.25;1021441;29;673;-62
2022/02/08 06:00:29;;;;;;;;;;;;;;;14.01;60.74;102095.56;1021267;29;1976;-63
2022/02/08 06:01:19;;;;;;;;;;;;;;;14.02;60.66;102096.44;1021538;29;723;-61
2022/02/08 06:02:10;;;;;;;;;;;;;;;14.01;60.13;102103.59;1020264;29;749;-62
2022/02/08 06:03:03;;;;;;;;;;;;;;;13.98;59.95;102093.06;1020387;29;741;-61
2022/02/08 06:03:54;;;;;;;;;;;;;;;13.99;60.66;102093.91;1021299;29;1511;-61
2022/02/08 06:04:45;;;;;;;;;;;;;;;14.00;61.78;102093.84;1021805;29;794;-61
2022/02/08 06:05:36;;;;;;;;;;;;;;;14.03;63.40;102093.66;1021344;29;774;-61
2022/02/08 06:06:29;;;;;;;;;;;;;;;14.06;64.57;102093.47;1022026;29;1877;-62
2022/02/08 06:07:22;;;;;;;;;;;;;;;14.10;64.43;102099.53;1021578;29;710;-62
2022/02/08 06:08:12;;;;;;;;;;;;;;;14.12;65.80;102101.16;1021800;29;754;-62
2022/02/08 06:09:03;;;;;;;;;;;;;;;14.11;65.91;102104.81;1022168;29;881;-61
2022/02/08 06:09:55;;;;;;;;;;;;;;;14.12;66.98;102101.16;1021783;29;709;-62
2022/02/08 06:10:50;;;;;;;;;;;;;;;14.12;66.44;102101.16;1021689;29;639;-61